PWSweather.com
Personal Weather Stations
Station Observations
SELKIRK1
Ontario, Selkirk, ON N0A 1P0

OntarioSelkirk, ON N0A 1P0

Lat: 42.8083652, Lon: -79.94971040000001

Elevation: 583

Station Type: Acurite 5 in 1

http://gavinsurf.com

High Low Average
Temperature 86.0°F30.0°C 74.3°F23.5°C 78.5°F25.8°C
Dew Point 81.4°F27.4°C 74.0°F23.3°C 76.7°F24.8°C
Winds 12.7 mph 20.4 kmh Calm Calm 5.0 mph SW8.0 kmh SW
Wind Gusts 13.8 mph22.2 kmh -- 5.0 mph8.0 kmh
Humidity 99% 76% 95%
Pressure 31.84 in1078.2 mb 30.16 in1021.3 mb -
Precipitation 0.01 in0.3 mm - -
Hour Temp Dew Point Humidity Winds Wind Gusts Pressure Precip Precip Rate Daily Precip Total
12:00 AM 76.7°F24.8°C 75.8°F24.3°C 97% 2.3 mph SW3.7 kmh SW 3.5 mph5.6 kmh 31.50 in1066.7 mb - 0.00 in0.0 mm 0.00 in0.0 mm
12:10 AM 76.3°F24.6°C 75.7°F24.3°C 98% 2.3 mph SW3.7 kmh SW 2.3 mph3.7 kmh 31.50 in1066.7 mb - 0.00 in0.0 mm 0.00 in0.0 mm
12:15 AM 76.3°F24.6°C 75.7°F24.3°C 98% 3.5 mph SW5.6 kmh SW 3.5 mph5.6 kmh 31.50 in1066.7 mb - 0.00 in0.0 mm 0.00 in0.0 mm
12:20 AM 76.3°F24.6°C 75.7°F24.3°C 98% 2.3 mph N3.7 kmh N 3.5 mph5.6 kmh 31.50 in1066.7 mb - 0.00 in0.0 mm 0.00 in0.0 mm
12:25 AM 76.3°F24.6°C 75.7°F24.3°C 98% 3.5 mph WSW5.6 kmh WSW 4.6 mph7.4 kmh 31.50 in1066.7 mb - 0.00 in0.0 mm 0.00 in0.0 mm
12:30 AM 76.3°F24.6°C 75.7°F24.3°C 98% 2.3 mph SW3.7 kmh SW 3.5 mph5.6 kmh 31.50 in1066.7 mb - 0.00 in0.0 mm 0.00 in0.0 mm
12:35 AM 76.5°F24.7°C 76.2°F24.6°C 99% 2.3 mph SW3.7 kmh SW 2.3 mph3.7 kmh 31.50 in1066.7 mb - 0.00 in0.0 mm 0.00 in0.0 mm
12:40 AM 76.3°F24.6°C 76.0°F24.4°C 99% 3.5 mph SW5.6 kmh SW 3.5 mph5.6 kmh 31.50 in1066.7 mb - 0.00 in0.0 mm 0.00 in0.0 mm
12:45 AM 76.1°F24.5°C 75.8°F24.3°C 99% 3.5 mph W5.6 kmh W 3.5 mph5.6 kmh 31.50 in1066.7 mb - 0.00 in0.0 mm 0.00 in0.0 mm
12:50 AM 75.9°F24.4°C 75.6°F24.2°C 99% 1.2 mph N1.9 kmh N 2.3 mph3.7 kmh 31.50 in1066.7 mb - 0.00 in0.0 mm 0.00 in0.0 mm
12:55 AM 75.8°F24.3°C 75.5°F24.2°C 99% 1.2 mph NNE1.9 kmh NNE 2.3 mph3.7 kmh 31.50 in1066.7 mb - 0.00 in0.0 mm 0.00 in0.0 mm
01:00 AM 75.8°F24.3°C 75.5°F24.2°C 99% 2.3 mph NNW3.7 kmh NNW 2.3 mph3.7 kmh 31.50 in1066.7 mb - 0.00 in0.0 mm 0.00 in0.0 mm
01:10 AM 76.3°F24.6°C 76.0°F24.4°C 99% 5.8 mph SW9.3 kmh SW 5.8 mph9.3 kmh 31.50 in1066.7 mb - 0.00 in0.0 mm 0.00 in0.0 mm
01:15 AM 76.7°F24.8°C 76.1°F24.5°C 98% 4.6 mph SSW7.4 kmh SSW 5.8 mph9.3 kmh 31.50 in1066.7 mb - 0.00 in0.0 mm 0.00 in0.0 mm
01:20 AM 76.8°F24.9°C 76.2°F24.6°C 98% 6.9 mph SW11.1 kmh SW 6.9 mph11.1 kmh 31.50 in1066.7 mb - 0.00 in0.0 mm 0.00 in0.0 mm
01:25 AM 76.8°F24.9°C 76.2°F24.6°C 98% 4.6 mph S7.4 kmh S 4.6 mph7.4 kmh 31.50 in1066.7 mb - 0.00 in0.0 mm 0.00 in0.0 mm
01:30 AM 76.8°F24.9°C 76.2°F24.6°C 98% 3.5 mph WSW5.6 kmh WSW 3.5 mph5.6 kmh 31.50 in1066.7 mb - 0.00 in0.0 mm 0.00 in0.0 mm
01:35 AM 76.8°F24.9°C 76.5°F24.7°C 99% 4.6 mph W7.4 kmh W 4.6 mph7.4 kmh 31.50 in1066.7 mb - 0.00 in0.0 mm 0.00 in0.0 mm
01:40 AM 76.8°F24.9°C 76.5°F24.7°C 99% 3.5 mph WSW5.6 kmh WSW 4.6 mph7.4 kmh 31.50 in1066.7 mb - 0.00 in0.0 mm 0.00 in0.0 mm
01:45 AM 76.8°F24.9°C 76.5°F24.7°C 99% 3.5 mph SW5.6 kmh SW 4.6 mph7.4 kmh 31.50 in1066.7 mb - 0.00 in0.0 mm 0.00 in0.0 mm
01:50 AM 76.7°F24.8°C 76.4°F24.7°C 99% 5.8 mph SW9.3 kmh SW 6.9 mph11.1 kmh 31.50 in1066.7 mb - 0.00 in0.0 mm 0.00 in0.0 mm
01:55 AM 76.5°F24.7°C 76.2°F24.6°C 99% 3.5 mph SW5.6 kmh SW 4.6 mph7.4 kmh 31.50 in1066.7 mb - 0.00 in0.0 mm 0.00 in0.0 mm
02:00 AM 76.5°F24.7°C 76.2°F24.6°C 99% 4.6 mph SSW7.4 kmh SSW 4.6 mph7.4 kmh 31.50 in1066.7 mb - 0.00 in0.0 mm 0.00 in0.0 mm
02:10 AM 76.3°F24.6°C 76.0°F24.4°C 99% 3.5 mph SW5.6 kmh SW 4.6 mph7.4 kmh 31.50 in1066.7 mb - 0.00 in0.0 mm 0.00 in0.0 mm
02:15 AM 76.2°F24.6°C 75.9°F24.4°C 99% 2.3 mph WSW3.7 kmh WSW 4.6 mph7.4 kmh 31.50 in1066.7 mb - 0.00 in0.0 mm 0.00 in0.0 mm
02:20 AM 76.1°F24.5°C 75.8°F24.3°C 99% 2.3 mph NW3.7 kmh NW 3.5 mph5.6 kmh 31.50 in1066.7 mb - 0.00 in0.0 mm 0.00 in0.0 mm
02:25 AM 76.1°F24.5°C 75.8°F24.3°C 99% 3.5 mph SW5.6 kmh SW 4.6 mph7.4 kmh 31.50 in1066.7 mb - 0.00 in0.0 mm 0.00 in0.0 mm
02:30 AM 76.1°F24.5°C 75.8°F24.3°C 99% 4.6 mph SSW7.4 kmh SSW 4.6 mph7.4 kmh 31.50 in1066.7 mb - 0.00 in0.0 mm 0.00 in0.0 mm
02:35 AM 76.3°F24.6°C 76.0°F24.4°C 99% 4.6 mph SW7.4 kmh SW 5.8 mph9.3 kmh 31.50 in1066.7 mb - 0.00 in0.0 mm 0.00 in0.0 mm
02:40 AM 76.3°F24.6°C 76.0°F24.4°C 99% 3.5 mph SW5.6 kmh SW 4.6 mph7.4 kmh 31.50 in1066.7 mb - 0.00 in0.0 mm 0.00 in0.0 mm
02:45 AM 76.3°F24.6°C 76.0°F24.4°C 99% 4.6 mph SW7.4 kmh SW 4.6 mph7.4 kmh 31.50 in1066.7 mb - 0.00 in0.0 mm 0.00 in0.0 mm
02:50 AM 76.3°F24.6°C 76.0°F24.4°C 99% 3.5 mph SSW5.6 kmh SSW 4.6 mph7.4 kmh 31.50 in1066.7 mb - 0.00 in0.0 mm 0.00 in0.0 mm
02:55 AM 76.1°F24.5°C 75.8°F24.3°C 99% 4.6 mph SW7.4 kmh SW 5.8 mph9.3 kmh 31.50 in1066.7 mb - 0.00 in0.0 mm 0.00 in0.0 mm
03:00 AM 76.1°F24.5°C 75.8°F24.3°C 99% 3.5 mph WSW5.6 kmh WSW 4.6 mph7.4 kmh 31.50 in1066.7 mb - 0.00 in0.0 mm 0.00 in0.0 mm
03:10 AM 76.1°F24.5°C 75.8°F24.3°C 99% 3.5 mph SW5.6 kmh SW 4.6 mph7.4 kmh 31.50 in1066.7 mb - 0.00 in0.0 mm 0.00 in0.0 mm
03:15 AM 76.1°F24.5°C 75.8°F24.3°C 99% 3.5 mph SW5.6 kmh SW 3.5 mph5.6 kmh 31.50 in1066.7 mb - 0.00 in0.0 mm 0.00 in0.0 mm
03:20 AM 76.1°F24.5°C 75.8°F24.3°C 99% 4.6 mph SSW7.4 kmh SSW 4.6 mph7.4 kmh 31.50 in1066.7 mb - 0.00 in0.0 mm 0.00 in0.0 mm
03:25 AM 76.1°F24.5°C 75.8°F24.3°C 99% 4.6 mph WSW7.4 kmh WSW 5.8 mph9.3 kmh 31.50 in1066.7 mb - 0.00 in0.0 mm 0.00 in0.0 mm
03:30 AM 76.3°F24.6°C 76.0°F24.4°C 99% 5.8 mph SW9.3 kmh SW 6.9 mph11.1 kmh 31.50 in1066.7 mb - 0.00 in0.0 mm 0.00 in0.0 mm
03:35 AM 76.3°F24.6°C 76.0°F24.4°C 99% 5.8 mph SW9.3 kmh SW 5.8 mph9.3 kmh 31.50 in1066.7 mb - 0.00 in0.0 mm 0.00 in0.0 mm
03:40 AM 76.3°F24.6°C 76.0°F24.4°C 99% 4.6 mph S7.4 kmh S 4.6 mph7.4 kmh 31.50 in1066.7 mb - 0.00 in0.0 mm 0.00 in0.0 mm
03:45 AM 76.3°F24.6°C 76.0°F24.4°C 99% 5.8 mph SSW9.3 kmh SSW 5.8 mph9.3 kmh 31.50 in1066.7 mb - 0.00 in0.0 mm 0.00 in0.0 mm
03:50 AM 76.3°F24.6°C 76.0°F24.4°C 99% 5.8 mph SSW9.3 kmh SSW 5.8 mph9.3 kmh 31.50 in1066.7 mb - 0.00 in0.0 mm 0.00 in0.0 mm
03:55 AM 76.3°F24.6°C 76.0°F24.4°C 99% 4.6 mph SSW7.4 kmh SSW 5.8 mph9.3 kmh 31.50 in1066.7 mb - 0.00 in0.0 mm 0.00 in0.0 mm
04:00 AM 76.1°F24.5°C 75.8°F24.3°C 99% 5.8 mph SW9.3 kmh SW 5.8 mph9.3 kmh 31.50 in1066.7 mb - 0.00 in0.0 mm 0.00 in0.0 mm
04:10 AM 76.1°F24.5°C 75.8°F24.3°C 99% 5.8 mph SW9.3 kmh SW 5.8 mph9.3 kmh 31.50 in1066.7 mb - 0.00 in0.0 mm 0.00 in0.0 mm
04:15 AM 76.1°F24.5°C 75.8°F24.3°C 99% 4.6 mph SSW7.4 kmh SSW 5.8 mph9.3 kmh 31.50 in1066.7 mb - 0.00 in0.0 mm 0.00 in0.0 mm
04:20 AM 76.1°F24.5°C 75.8°F24.3°C 99% 4.6 mph WSW7.4 kmh WSW 4.6 mph7.4 kmh 31.50 in1066.7 mb - 0.00 in0.0 mm 0.00 in0.0 mm
04:25 AM 75.9°F24.4°C 75.6°F24.2°C 99% 5.8 mph WNW9.3 kmh WNW 5.8 mph9.3 kmh 31.50 in1066.7 mb - 0.00 in0.0 mm 0.00 in0.0 mm
04:30 AM 75.9°F24.4°C 75.6°F24.2°C 99% 3.5 mph SW5.6 kmh SW 4.6 mph7.4 kmh 31.50 in1066.7 mb - 0.00 in0.0 mm 0.00 in0.0 mm
04:35 AM 75.9°F24.4°C 75.6°F24.2°C 99% 4.6 mph SW7.4 kmh SW 5.8 mph9.3 kmh 31.50 in1066.7 mb - 0.00 in0.0 mm 0.00 in0.0 mm
04:40 AM 76.1°F24.5°C 75.8°F24.3°C 99% 4.6 mph WSW7.4 kmh WSW 5.8 mph9.3 kmh 31.50 in1066.7 mb - 0.00 in0.0 mm 0.00 in0.0 mm
04:45 AM 76.1°F24.5°C 75.8°F24.3°C 99% 4.6 mph SSW7.4 kmh SSW 3.5 mph5.6 kmh 31.50 in1066.7 mb - 0.00 in0.0 mm 0.00 in0.0 mm
04:50 AM 76.1°F24.5°C 75.8°F24.3°C 99% 4.6 mph SW7.4 kmh SW 4.6 mph7.4 kmh 31.50 in1066.7 mb - 0.00 in0.0 mm 0.00 in0.0 mm
04:55 AM 76.1°F24.5°C 75.8°F24.3°C 99% 4.6 mph SSW7.4 kmh SSW 5.8 mph9.3 kmh 31.50 in1066.7 mb - 0.00 in0.0 mm 0.00 in0.0 mm
05:00 AM 76.1°F24.5°C 75.8°F24.3°C 99% 4.6 mph SSW7.4 kmh SSW 5.8 mph9.3 kmh 31.50 in1066.7 mb - 0.00 in0.0 mm 0.00 in0.0 mm
05:10 AM 76.1°F24.5°C 75.8°F24.3°C 99% 4.6 mph S7.4 kmh S 6.9 mph11.1 kmh 31.50 in1066.7 mb - 0.00 in0.0 mm 0.00 in0.0 mm
05:15 AM 76.1°F24.5°C 75.8°F24.3°C 99% 4.6 mph S7.4 kmh S 5.8 mph9.3 kmh 31.50 in1066.7 mb - 0.00 in0.0 mm 0.00 in0.0 mm
05:20 AM 76.1°F24.5°C 75.8°F24.3°C 99% 3.5 mph SSW5.6 kmh SSW 3.5 mph5.6 kmh 31.50 in1066.7 mb - 0.00 in0.0 mm 0.00 in0.0 mm
05:25 AM 76.1°F24.5°C 75.8°F24.3°C 99% 3.5 mph S5.6 kmh S 3.5 mph5.6 kmh 31.50 in1066.7 mb - 0.00 in0.0 mm 0.00 in0.0 mm
05:30 AM 76.1°F24.5°C 75.8°F24.3°C 99% 4.6 mph SW7.4 kmh SW 4.6 mph7.4 kmh 31.50 in1066.7 mb - 0.00 in0.0 mm 0.00 in0.0 mm
05:35 AM 76.1°F24.5°C 75.8°F24.3°C 99% 4.6 mph SSW7.4 kmh SSW 5.8 mph9.3 kmh 31.50 in1066.7 mb - 0.00 in0.0 mm 0.00 in0.0 mm
05:40 AM 75.9°F24.4°C 75.6°F24.2°C 99% 4.6 mph S7.4 kmh S 4.6 mph7.4 kmh 31.50 in1066.7 mb - 0.00 in0.0 mm 0.00 in0.0 mm
05:45 AM 75.9°F24.4°C 75.6°F24.2°C 99% 6.9 mph SW11.1 kmh SW 6.9 mph11.1 kmh 31.50 in1066.7 mb - 0.00 in0.0 mm 0.00 in0.0 mm
05:50 AM 75.9°F24.4°C 75.6°F24.2°C 99% 8.1 mph SW13.0 kmh SW 8.1 mph13.0 kmh 31.50 in1066.7 mb - 0.00 in0.0 mm 0.00 in0.0 mm
05:55 AM 75.9°F24.4°C 75.6°F24.2°C 99% 3.5 mph SSW5.6 kmh SSW 4.6 mph7.4 kmh 31.50 in1066.7 mb - 0.00 in0.0 mm 0.00 in0.0 mm
06:00 AM 75.8°F24.3°C 75.5°F24.2°C 99% 4.6 mph SW7.4 kmh SW 5.8 mph9.3 kmh 31.50 in1066.7 mb - 0.00 in0.0 mm 0.00 in0.0 mm
06:10 AM 75.8°F24.3°C 75.5°F24.2°C 99% 4.6 mph S7.4 kmh S 4.6 mph7.4 kmh 31.50 in1066.7 mb - 0.00 in0.0 mm 0.00 in0.0 mm
06:15 AM 75.9°F24.4°C 75.6°F24.2°C 99% 4.6 mph SW7.4 kmh SW 6.9 mph11.1 kmh 31.50 in1066.7 mb - 0.00 in0.0 mm 0.00 in0.0 mm
06:20 AM 75.9°F24.4°C 75.6°F24.2°C 99% 4.6 mph SW7.4 kmh SW 6.9 mph11.1 kmh 31.50 in1066.7 mb - 0.00 in0.0 mm 0.00 in0.0 mm
06:25 AM 75.9°F24.4°C 75.6°F24.2°C 99% 3.5 mph SSW5.6 kmh SSW 4.6 mph7.4 kmh 31.50 in1066.7 mb - 0.00 in0.0 mm 0.00 in0.0 mm
06:30 AM 75.9°F24.4°C 75.6°F24.2°C 99% 4.6 mph WSW7.4 kmh WSW 5.8 mph9.3 kmh 31.50 in1066.7 mb - 0.00 in0.0 mm 0.00 in0.0 mm
06:35 AM 75.9°F24.4°C 75.6°F24.2°C 99% 3.5 mph SSW5.6 kmh SSW 4.6 mph7.4 kmh 31.50 in1066.7 mb - 0.00 in0.0 mm 0.00 in0.0 mm
06:40 AM 75.9°F24.4°C 75.6°F24.2°C 99% 2.3 mph S3.7 kmh S 4.6 mph7.4 kmh 31.50 in1066.7 mb - 0.00 in0.0 mm 0.00 in0.0 mm
06:45 AM 75.9°F24.4°C 75.6°F24.2°C 99% 4.6 mph WSW7.4 kmh WSW 5.8 mph9.3 kmh 31.50 in1066.7 mb - 0.00 in0.0 mm 0.00 in0.0 mm
06:50 AM 76.1°F24.5°C 75.8°F24.3°C 99% 3.5 mph SSW5.6 kmh SSW 4.6 mph7.4 kmh 31.50 in1066.7 mb - 0.00 in0.0 mm 0.00 in0.0 mm
06:55 AM 76.1°F24.5°C 75.8°F24.3°C 99% 5.8 mph SW9.3 kmh SW 6.9 mph11.1 kmh 31.50 in1066.7 mb - 0.00 in0.0 mm 0.00 in0.0 mm
07:00 AM 76.1°F24.5°C 75.8°F24.3°C 99% 3.5 mph SW5.6 kmh SW 4.6 mph7.4 kmh 31.50 in1066.7 mb - 0.00 in0.0 mm 0.00 in0.0 mm
07:10 AM 76.3°F24.6°C 76.0°F24.4°C 99% 3.5 mph SSW5.6 kmh SSW 5.8 mph9.3 kmh 31.50 in1066.7 mb - 0.00 in0.0 mm 0.00 in0.0 mm
07:15 AM 76.5°F24.7°C 76.2°F24.6°C 99% 4.6 mph SSW7.4 kmh SSW 5.8 mph9.3 kmh 31.50 in1066.7 mb - 0.00 in0.0 mm 0.00 in0.0 mm
07:20 AM 76.5°F24.7°C 76.2°F24.6°C 99% 5.8 mph SSW9.3 kmh SSW 5.8 mph9.3 kmh 31.50 in1066.7 mb - 0.00 in0.0 mm 0.00 in0.0 mm
07:25 AM 76.5°F24.7°C 76.2°F24.6°C 99% 4.6 mph SW7.4 kmh SW 6.9 mph11.1 kmh 31.50 in1066.7 mb - 0.00 in0.0 mm 0.00 in0.0 mm
07:30 AM 76.7°F24.8°C 76.4°F24.7°C 99% 3.5 mph SW5.6 kmh SW 5.8 mph9.3 kmh 31.50 in1066.7 mb - 0.00 in0.0 mm 0.00 in0.0 mm
07:35 AM 76.5°F24.7°C 76.2°F24.6°C 99% 4.6 mph SW7.4 kmh SW 5.8 mph9.3 kmh 31.50 in1066.7 mb - 0.00 in0.0 mm 0.00 in0.0 mm
07:40 AM 76.5°F24.7°C 76.2°F24.6°C 99% 3.5 mph SSW5.6 kmh SSW 4.6 mph7.4 kmh 31.50 in1066.7 mb - 0.00 in0.0 mm 0.00 in0.0 mm
07:45 AM 76.7°F24.8°C 76.4°F24.7°C 99% 4.6 mph SW7.4 kmh SW 6.9 mph11.1 kmh 31.50 in1066.7 mb - 0.00 in0.0 mm 0.00 in0.0 mm
07:50 AM 76.7°F24.8°C 76.4°F24.7°C 99% 4.6 mph SW7.4 kmh SW 4.6 mph7.4 kmh 31.50 in1066.7 mb - 0.00 in0.0 mm 0.00 in0.0 mm
07:55 AM 76.7°F24.8°C 76.4°F24.7°C 99% 3.5 mph SSW5.6 kmh SSW 4.6 mph7.4 kmh 31.50 in1066.7 mb - 0.00 in0.0 mm 0.00 in0.0 mm
08:00 AM 76.7°F24.8°C 76.4°F24.7°C 99% 4.6 mph SW7.4 kmh SW 4.6 mph7.4 kmh 31.50 in1066.7 mb - 0.00 in0.0 mm 0.00 in0.0 mm
08:10 AM 77.1°F25.1°C 76.8°F24.9°C 99% 5.8 mph S9.3 kmh S 6.9 mph11.1 kmh 31.50 in1066.7 mb - 0.00 in0.0 mm 0.00 in0.0 mm
08:15 AM 77.4°F25.2°C 77.1°F25.1°C 99% 4.6 mph SSW7.4 kmh SSW 5.8 mph9.3 kmh 31.50 in1066.7 mb - 0.00 in0.0 mm 0.00 in0.0 mm
08:20 AM 77.6°F25.3°C 77.3°F25.2°C 99% 4.6 mph WSW7.4 kmh WSW 5.8 mph9.3 kmh 31.50 in1066.7 mb - 0.00 in0.0 mm 0.00 in0.0 mm
08:25 AM 77.7°F25.4°C 77.4°F25.2°C 99% 4.6 mph SW7.4 kmh SW 5.8 mph9.3 kmh 31.50 in1066.7 mb - 0.00 in0.0 mm 0.00 in0.0 mm
08:30 AM 77.9°F25.5°C 77.6°F25.3°C 99% 4.6 mph SW7.4 kmh SW 5.8 mph9.3 kmh 31.50 in1066.7 mb - 0.00 in0.0 mm 0.00 in0.0 mm
08:35 AM 77.9°F25.5°C 77.6°F25.3°C 99% 4.6 mph SSW7.4 kmh SSW 10.4 mph16.7 kmh 31.50 in1066.7 mb - 0.00 in0.0 mm 0.00 in0.0 mm
08:40 AM 78.3°F25.7°C 77.7°F25.4°C 98% 4.6 mph SW7.4 kmh SW 6.9 mph11.1 kmh 31.50 in1066.7 mb - 0.00 in0.0 mm 0.00 in0.0 mm
08:45 AM 78.5°F25.8°C 77.9°F25.5°C 98% 3.5 mph SW5.6 kmh SW 5.8 mph9.3 kmh 31.50 in1066.7 mb - 0.00 in0.0 mm 0.00 in0.0 mm
08:50 AM 78.6°F25.9°C 77.7°F25.4°C 97% 4.6 mph SW7.4 kmh SW 4.6 mph7.4 kmh 31.50 in1066.7 mb - 0.00 in0.0 mm 0.00 in0.0 mm
08:55 AM 78.5°F25.8°C 77.6°F25.3°C 97% 4.6 mph SW7.4 kmh SW 5.8 mph9.3 kmh 31.50 in1066.7 mb - 0.00 in0.0 mm 0.00 in0.0 mm
09:00 AM 78.5°F25.8°C 77.6°F25.3°C 97% 4.6 mph SW7.4 kmh SW 5.8 mph9.3 kmh 31.50 in1066.7 mb - 0.00 in0.0 mm 0.00 in0.0 mm
09:10 AM 78.1°F25.6°C 77.5°F25.3°C 98% 5.8 mph SW9.3 kmh SW 6.9 mph11.1 kmh 31.50 in1066.7 mb - 0.00 in0.0 mm 0.00 in0.0 mm
09:20 AM 78.6°F25.9°C 78.0°F25.6°C 98% 4.6 mph SW7.4 kmh SW 5.8 mph9.3 kmh 31.50 in1066.7 mb - 0.00 in0.0 mm 0.00 in0.0 mm
09:25 AM 78.8°F26.0°C 78.2°F25.7°C 98% 4.6 mph SW7.4 kmh SW 6.9 mph11.1 kmh 31.50 in1066.7 mb - 0.00 in0.0 mm 0.00 in0.0 mm
09:30 AM 78.6°F25.9°C 77.7°F25.4°C 97% 5.8 mph SW9.3 kmh SW 5.8 mph9.3 kmh 31.50 in1066.7 mb - 0.00 in0.0 mm 0.00 in0.0 mm
09:35 AM 78.5°F25.8°C 77.6°F25.3°C 97% 5.8 mph SSW9.3 kmh SSW 6.9 mph11.1 kmh 31.50 in1066.7 mb - 0.00 in0.0 mm 0.00 in0.0 mm
09:40 AM 78.5°F25.8°C 77.6°F25.3°C 97% 8.1 mph SW13.0 kmh SW 9.2 mph14.8 kmh 31.50 in1066.7 mb - 0.00 in0.0 mm 0.00 in0.0 mm
09:45 AM 78.5°F25.8°C 77.6°F25.3°C 97% 8.1 mph SW13.0 kmh SW 9.2 mph14.8 kmh 31.50 in1066.7 mb - 0.00 in0.0 mm 0.00 in0.0 mm
09:50 AM 78.6°F25.9°C 77.7°F25.4°C 97% 8.1 mph SSW13.0 kmh SSW 10.4 mph16.7 kmh 31.50 in1066.7 mb - 0.00 in0.0 mm 0.00 in0.0 mm
09:55 AM 78.8°F26.0°C 77.9°F25.5°C 97% 8.1 mph SW13.0 kmh SW 9.2 mph14.8 kmh 31.50 in1066.7 mb - 0.00 in0.0 mm 0.00 in0.0 mm
10:00 AM 78.8°F26.0°C 77.9°F25.5°C 97% 8.1 mph SW13.0 kmh SW 8.1 mph13.0 kmh 31.50 in1066.7 mb - 0.00 in0.0 mm 0.00 in0.0 mm
10:10 AM 79.0°F26.1°C 78.1°F25.6°C 97% 6.9 mph SW11.1 kmh SW 6.9 mph11.1 kmh 31.50 in1066.7 mb - 0.00 in0.0 mm 0.00 in0.0 mm
10:15 AM 79.1°F26.2°C 78.2°F25.7°C 97% 5.8 mph SW9.3 kmh SW 6.9 mph11.1 kmh 31.50 in1066.7 mb - 0.00 in0.0 mm 0.00 in0.0 mm
10:20 AM 79.2°F26.2°C 78.3°F25.7°C 97% 6.9 mph SW11.1 kmh SW 6.9 mph11.1 kmh 31.50 in1066.7 mb - 0.00 in0.0 mm 0.00 in0.0 mm
10:25 AM 79.4°F26.3°C 78.5°F25.8°C 97% 8.1 mph SW13.0 kmh SW 9.2 mph14.8 kmh 31.50 in1066.7 mb - 0.00 in0.0 mm 0.00 in0.0 mm
10:30 AM 79.4°F26.3°C 78.5°F25.8°C 97% 8.1 mph SW13.0 kmh SW 9.2 mph14.8 kmh 31.50 in1066.7 mb - 0.00 in0.0 mm 0.00 in0.0 mm
10:35 AM 79.4°F26.3°C 78.1°F25.6°C 96% 9.2 mph SW14.8 kmh SW 10.4 mph16.7 kmh 31.50 in1066.7 mb - 0.00 in0.0 mm 0.00 in0.0 mm
10:40 AM 79.4°F26.3°C 78.1°F25.6°C 96% 6.9 mph SSW11.1 kmh SSW 6.9 mph11.1 kmh 31.50 in1066.7 mb - 0.00 in0.0 mm 0.00 in0.0 mm
10:45 AM 79.5°F26.4°C 78.2°F25.7°C 96% 5.8 mph SW9.3 kmh SW 6.9 mph11.1 kmh 31.50 in1066.7 mb - 0.00 in0.0 mm 0.00 in0.0 mm
10:50 AM 80.1°F26.7°C 78.9°F26.1°C 96% 6.9 mph SW11.1 kmh SW 9.2 mph14.8 kmh 31.50 in1066.7 mb - 0.00 in0.0 mm 0.00 in0.0 mm
10:55 AM 80.1°F26.7°C 78.5°F25.8°C 95% 8.1 mph SSW13.0 kmh SSW 10.4 mph16.7 kmh 31.50 in1066.7 mb - 0.00 in0.0 mm 0.00 in0.0 mm
11:00 AM 80.2°F26.8°C 78.6°F25.9°C 95% 8.1 mph SW13.0 kmh SW 10.4 mph16.7 kmh 31.50 in1066.7 mb - 0.00 in0.0 mm 0.00 in0.0 mm
11:10 AM 80.3°F26.8°C 78.7°F25.9°C 95% 6.9 mph SSW11.1 kmh SSW 8.1 mph13.0 kmh 31.50 in1066.7 mb - 0.00 in0.0 mm 0.00 in0.0 mm
11:15 AM 80.4°F26.9°C 78.8°F26.0°C 95% 6.9 mph SW11.1 kmh SW 6.9 mph11.1 kmh 31.50 in1066.7 mb - 0.00 in0.0 mm 0.00 in0.0 mm
11:20 AM 80.7°F27.1°C 79.1°F26.2°C 95% 8.1 mph SSW13.0 kmh SSW 8.1 mph13.0 kmh 31.50 in1066.7 mb - 0.00 in0.0 mm 0.00 in0.0 mm
11:25 AM 80.8°F27.1°C 78.9°F26.1°C 94% 9.2 mph SW14.8 kmh SW 11.5 mph18.5 kmh 31.50 in1066.7 mb - 0.00 in0.0 mm 0.00 in0.0 mm
11:30 AM 80.8°F27.1°C 78.9°F26.1°C 94% 10.4 mph SSW16.7 kmh SSW 11.5 mph18.5 kmh 31.50 in1066.7 mb - 0.00 in0.0 mm 0.00 in0.0 mm
11:35 AM 80.6°F27.0°C 78.7°F25.9°C 94% 9.2 mph SSW14.8 kmh SSW 10.4 mph16.7 kmh 31.50 in1066.7 mb - 0.00 in0.0 mm 0.00 in0.0 mm
11:40 AM 80.6°F27.0°C 78.7°F25.9°C 94% 8.1 mph SW13.0 kmh SW 10.4 mph16.7 kmh 31.50 in1066.7 mb - 0.00 in0.0 mm 0.00 in0.0 mm
11:45 AM 80.8°F27.1°C 78.9°F26.1°C 94% 9.2 mph SW14.8 kmh SW 10.4 mph16.7 kmh 31.50 in1066.7 mb - 0.00 in0.0 mm 0.00 in0.0 mm
11:50 AM 80.8°F27.1°C 78.9°F26.1°C 94% 9.2 mph SW14.8 kmh SW 10.4 mph16.7 kmh 31.50 in1066.7 mb - 0.00 in0.0 mm 0.00 in0.0 mm
11:55 AM 80.6°F27.0°C 78.7°F25.9°C 94% 9.2 mph SSW14.8 kmh SSW 10.4 mph16.7 kmh 31.50 in1066.7 mb - 0.00 in0.0 mm 0.00 in0.0 mm
12:00 PM 80.6°F27.0°C 78.7°F25.9°C 94% 9.2 mph SW14.8 kmh SW 10.4 mph16.7 kmh 31.50 in1066.7 mb - 0.00 in0.0 mm 0.00 in0.0 mm
12:10 PM 80.8°F27.1°C 78.9°F26.1°C 94% 9.2 mph SW14.8 kmh SW 10.4 mph16.7 kmh 31.50 in1066.7 mb - 0.00 in0.0 mm 0.00 in0.0 mm
12:15 PM 81.0°F27.2°C 79.1°F26.2°C 94% 10.4 mph SW16.7 kmh SW 11.5 mph18.5 kmh 31.50 in1066.7 mb - 0.00 in0.0 mm 0.00 in0.0 mm
12:20 PM 81.0°F27.2°C 79.1°F26.2°C 94% 10.4 mph SW16.7 kmh SW 10.4 mph16.7 kmh 31.50 in1066.7 mb - 0.00 in0.0 mm 0.00 in0.0 mm
12:25 PM 81.0°F27.2°C 79.1°F26.2°C 94% 10.4 mph SW16.7 kmh SW 13.8 mph22.2 kmh 31.50 in1066.7 mb - 0.00 in0.0 mm 0.00 in0.0 mm
12:30 PM 81.0°F27.2°C 79.1°F26.2°C 94% 10.4 mph SW16.7 kmh SW 11.5 mph18.5 kmh 31.50 in1066.7 mb - 0.00 in0.0 mm 0.00 in0.0 mm
12:35 PM 81.2°F27.3°C 79.3°F26.3°C 94% 10.4 mph SW16.7 kmh SW 11.5 mph18.5 kmh 31.50 in1066.7 mb - 0.00 in0.0 mm 0.00 in0.0 mm
12:40 PM 81.2°F27.3°C 79.3°F26.3°C 94% 10.4 mph SW16.7 kmh SW 11.5 mph18.5 kmh 31.50 in1066.7 mb - 0.00 in0.0 mm 0.00 in0.0 mm
12:45 PM 81.2°F27.3°C 79.3°F26.3°C 94% 12.7 mph SW20.4 kmh SW 12.7 mph20.4 kmh 31.50 in1066.7 mb - 0.00 in0.0 mm 0.00 in0.0 mm
12:50 PM 81.2°F27.3°C 79.3°F26.3°C 94% 10.4 mph SW16.7 kmh SW 10.4 mph16.7 kmh 31.50 in1066.7 mb - 0.00 in0.0 mm 0.00 in0.0 mm
12:55 PM 81.3°F27.4°C 79.4°F26.3°C 94% 9.2 mph WSW14.8 kmh WSW 11.5 mph18.5 kmh 31.50 in1066.7 mb - 0.00 in0.0 mm 0.00 in0.0 mm
01:00 PM 81.5°F27.5°C 79.6°F26.4°C 94% 11.5 mph SW18.5 kmh SW 13.8 mph22.2 kmh 31.50 in1066.7 mb - 0.00 in0.0 mm 0.00 in0.0 mm
01:10 PM 81.3°F27.4°C 79.1°F26.2°C 93% 12.7 mph SW20.4 kmh SW 13.8 mph22.2 kmh 31.50 in1066.7 mb - 0.00 in0.0 mm 0.00 in0.0 mm
01:15 PM 81.2°F27.3°C 79.0°F26.1°C 93% 12.7 mph SSW20.4 kmh SSW 13.8 mph22.2 kmh 31.50 in1066.7 mb - 0.00 in0.0 mm 0.00 in0.0 mm
01:20 PM 81.2°F27.3°C 79.0°F26.1°C 93% 11.5 mph SSW18.5 kmh SSW 11.5 mph18.5 kmh 31.50 in1066.7 mb - 0.00 in0.0 mm 0.00 in0.0 mm
01:25 PM 81.3°F27.4°C 79.1°F26.2°C 93% 10.4 mph SSW16.7 kmh SSW 12.7 mph20.4 kmh 31.50 in1066.7 mb - 0.00 in0.0 mm 0.00 in0.0 mm
01:30 PM 81.5°F27.5°C 79.3°F26.3°C 93% 10.4 mph SSW16.7 kmh SSW 11.5 mph18.5 kmh 31.50 in1066.7 mb - 0.00 in0.0 mm 0.00 in0.0 mm
01:35 PM 81.7°F27.6°C 79.5°F26.4°C 93% 9.2 mph SW14.8 kmh SW 10.4 mph16.7 kmh 31.50 in1066.7 mb - 0.00 in0.0 mm 0.00 in0.0 mm
01:40 PM 81.7°F27.6°C 79.5°F26.4°C 93% 10.4 mph SW16.7 kmh SW 10.4 mph16.7 kmh 31.50 in1066.7 mb - 0.00 in0.0 mm 0.00 in0.0 mm
01:45 PM 81.9°F27.7°C 79.7°F26.5°C 93% 9.2 mph SW14.8 kmh SW 10.4 mph16.7 kmh 31.50 in1066.7 mb - 0.00 in0.0 mm 0.00 in0.0 mm
01:50 PM 81.9°F27.7°C 79.7°F26.5°C 93% 10.4 mph SW16.7 kmh SW 11.5 mph18.5 kmh 31.50 in1066.7 mb - 0.00 in0.0 mm 0.00 in0.0 mm
01:55 PM 81.9°F27.7°C 79.7°F26.5°C 93% 9.2 mph SSW14.8 kmh SSW 10.4 mph16.7 kmh 31.50 in1066.7 mb - 0.00 in0.0 mm 0.00 in0.0 mm
02:00 PM 81.9°F27.7°C 79.7°F26.5°C 93% 9.2 mph SW14.8 kmh SW 9.2 mph14.8 kmh 31.50 in1066.7 mb - 0.00 in0.0 mm 0.00 in0.0 mm
02:10 PM 81.9°F27.7°C 79.7°F26.5°C 93% 8.1 mph SW13.0 kmh SW 9.2 mph14.8 kmh 31.50 in1066.7 mb - 0.00 in0.0 mm 0.00 in0.0 mm
02:15 PM 82.1°F27.8°C 79.9°F26.6°C 93% 6.9 mph SW11.1 kmh SW 6.9 mph11.1 kmh 31.50 in1066.7 mb - 0.00 in0.0 mm 0.00 in0.0 mm
02:20 PM 83.3°F28.5°C 80.4°F26.9°C 91% 4.6 mph SSW7.4 kmh SSW 6.9 mph11.1 kmh 31.50 in1066.7 mb - 0.00 in0.0 mm 0.00 in0.0 mm
02:25 PM 83.5°F28.6°C 80.6°F27.0°C 91% 5.8 mph SW9.3 kmh SW 6.9 mph11.1 kmh 31.50 in1066.7 mb - 0.00 in0.0 mm 0.00 in0.0 mm
02:30 PM 83.0°F28.3°C 80.1°F26.7°C 91% 8.1 mph SW13.0 kmh SW 9.2 mph14.8 kmh 31.50 in1066.7 mb - 0.00 in0.0 mm 0.00 in0.0 mm
02:35 PM 82.7°F28.2°C 80.2°F26.8°C 92% 8.1 mph SSW13.0 kmh SSW 9.2 mph14.8 kmh 31.50 in1066.7 mb - 0.00 in0.0 mm 0.00 in0.0 mm
02:40 PM 82.6°F28.1°C 80.0°F26.7°C 92% 5.8 mph SSW9.3 kmh SSW 5.8 mph9.3 kmh 31.50 in1066.7 mb - 0.00 in0.0 mm 0.00 in0.0 mm
02:45 PM 82.8°F28.2°C 80.3°F26.8°C 92% 5.8 mph SW9.3 kmh SW 6.9 mph11.1 kmh 31.50 in1066.7 mb - 0.00 in0.0 mm 0.00 in0.0 mm
02:50 PM 83.1°F28.4°C 80.5°F26.9°C 92% 4.6 mph WSW7.4 kmh WSW 5.8 mph9.3 kmh 31.50 in1066.7 mb - 0.00 in0.0 mm 0.00 in0.0 mm
02:55 PM 82.7°F28.2°C 80.1°F26.7°C 92% 5.8 mph S9.3 kmh S 6.9 mph11.1 kmh 31.50 in1066.7 mb - 0.00 in0.0 mm 0.00 in0.0 mm
03:00 PM 82.4°F28.0°C 79.8°F26.6°C 92% 8.1 mph SSW13.0 kmh SSW 9.2 mph14.8 kmh 31.50 in1066.7 mb - 0.00 in0.0 mm 0.00 in0.0 mm
03:10 PM 82.3°F27.9°C 80.1°F26.7°C 93% 3.5 mph S5.6 kmh S 3.5 mph5.6 kmh 31.50 in1066.7 mb - 0.00 in0.0 mm 0.00 in0.0 mm
03:15 PM 83.3°F28.5°C 80.7°F27.1°C 92% 3.5 mph SSW5.6 kmh SSW 4.6 mph7.4 kmh 31.50 in1066.7 mb - 0.00 in0.0 mm 0.00 in0.0 mm
03:20 PM 82.6°F28.1°C 80.0°F26.7°C 92% 5.8 mph SW9.3 kmh SW 5.8 mph9.3 kmh 31.50 in1066.7 mb - 0.00 in0.0 mm 0.00 in0.0 mm
03:25 PM 84.3°F29.1°C 81.4°F27.4°C 91% 4.6 mph NNW7.4 kmh NNW 4.6 mph7.4 kmh 31.50 in1066.7 mb - 0.00 in0.0 mm 0.00 in0.0 mm
03:30 PM 84.0°F28.9°C 77.6°F25.3°C 81% 9.2 mph N14.8 kmh N 9.2 mph14.8 kmh 31.50 in1066.7 mb - 0.00 in0.0 mm 0.00 in0.0 mm
03:35 PM 84.0°F28.9°C 77.6°F25.3°C 81% 3.5 mph N5.6 kmh N 4.6 mph7.4 kmh 31.50 in1066.7 mb - 0.00 in0.0 mm 0.00 in0.0 mm
03:40 PM 85.2°F29.6°C 77.2°F25.1°C 77% 4.6 mph NW7.4 kmh NW 5.8 mph9.3 kmh 31.50 in1066.7 mb - 0.00 in0.0 mm 0.00 in0.0 mm
03:45 PM 85.8°F29.9°C 78.1°F25.6°C 78% 9.2 mph N14.8 kmh N 10.4 mph16.7 kmh 31.50 in1066.7 mb - 0.00 in0.0 mm 0.00 in0.0 mm
03:50 PM 84.9°F29.4°C 76.9°F24.9°C 77% 4.6 mph NNE7.4 kmh NNE 4.6 mph7.4 kmh 31.50 in1066.7 mb - 0.00 in0.0 mm 0.00 in0.0 mm
03:55 PM 85.0°F29.4°C 77.3°F25.2°C 78% 2.3 mph N3.7 kmh N 2.3 mph3.7 kmh 31.50 in1066.7 mb - 0.00 in0.0 mm 0.00 in0.0 mm
04:00 PM 85.5°F29.7°C 77.5°F25.3°C 77% 3.5 mph NNW5.6 kmh NNW 3.5 mph5.6 kmh 31.50 in1066.7 mb - 0.00 in0.0 mm 0.00 in0.0 mm
04:10 PM 85.5°F29.7°C 77.8°F25.4°C 78% 3.5 mph WNW5.6 kmh WNW 3.5 mph5.6 kmh 31.50 in1066.7 mb - 0.00 in0.0 mm 0.00 in0.0 mm
04:15 PM 85.3°F29.6°C 77.6°F25.3°C 78% 5.8 mph NNE9.3 kmh NNE 6.9 mph11.1 kmh 31.50 in1066.7 mb - 0.00 in0.0 mm 0.00 in0.0 mm
04:20 PM 85.3°F29.6°C 77.6°F25.3°C 78% 3.5 mph NNW5.6 kmh NNW 4.6 mph7.4 kmh 31.50 in1066.7 mb - 0.00 in0.0 mm 0.00 in0.0 mm
04:25 PM 85.4°F29.7°C 78.1°F25.6°C 79% 4.6 mph NW7.4 kmh NW 4.6 mph7.4 kmh 31.50 in1066.7 mb - 0.00 in0.0 mm 0.00 in0.0 mm
04:30 PM 86.0°F30.0°C 77.9°F25.5°C 77% 4.6 mph NW7.4 kmh NW 8.1 mph13.0 kmh 31.50 in1066.7 mb - 0.00 in0.0 mm 0.00 in0.0 mm
04:35 PM 85.8°F29.9°C 77.7°F25.4°C 77% 5.8 mph N9.3 kmh N 9.2 mph14.8 kmh 31.50 in1066.7 mb - 0.00 in0.0 mm 0.00 in0.0 mm
04:40 PM 84.8°F29.3°C 76.8°F24.9°C 77% 5.8 mph N9.3 kmh N 4.6 mph7.4 kmh 31.50 in1066.7 mb - 0.00 in0.0 mm 0.00 in0.0 mm
04:45 PM 83.9°F28.8°C 76.3°F24.6°C 78% 4.6 mph NNW7.4 kmh NNW 5.8 mph9.3 kmh 31.50 in1066.7 mb - 0.00 in0.0 mm 0.00 in0.0 mm
04:50 PM 83.5°F28.6°C 75.9°F24.4°C 78% 4.6 mph N7.4 kmh N 4.6 mph7.4 kmh 31.50 in1066.7 mb - 0.00 in0.0 mm 0.00 in0.0 mm
04:55 PM 83.5°F28.6°C 75.1°F23.9°C 76% 5.8 mph NNW9.3 kmh NNW 5.8 mph9.3 kmh 31.50 in1066.7 mb - 0.00 in0.0 mm 0.00 in0.0 mm
05:00 PM 83.0°F28.3°C 75.0°F23.9°C 77% 3.5 mph NNW5.6 kmh NNW 4.6 mph7.4 kmh 31.50 in1066.7 mb - 0.00 in0.0 mm 0.00 in0.0 mm
05:10 PM 82.6°F28.1°C 75.0°F23.9°C 78% 4.6 mph NW7.4 kmh NW 5.8 mph9.3 kmh 31.50 in1066.7 mb - 0.00 in0.0 mm 0.00 in0.0 mm
05:15 PM 82.4°F28.0°C 74.8°F23.8°C 78% 3.5 mph N5.6 kmh N 4.6 mph7.4 kmh 31.50 in1066.7 mb - 0.00 in0.0 mm 0.00 in0.0 mm
05:20 PM 82.4°F28.0°C 74.8°F23.8°C 78% 3.5 mph NNE5.6 kmh NNE 4.6 mph7.4 kmh 31.50 in1066.7 mb - 0.00 in0.0 mm 0.00 in0.0 mm
05:25 PM 82.2°F27.9°C 75.0°F23.9°C 79% 3.5 mph N5.6 kmh N 5.8 mph9.3 kmh 31.50 in1066.7 mb - 0.00 in0.0 mm 0.00 in0.0 mm
05:30 PM 82.2°F27.9°C 75.0°F23.9°C 79% 4.6 mph NNE7.4 kmh NNE 4.6 mph7.4 kmh 31.50 in1066.7 mb - 0.00 in0.0 mm 0.00 in0.0 mm
05:35 PM 82.2°F27.9°C 75.0°F23.9°C 79% 3.5 mph N5.6 kmh N 4.6 mph7.4 kmh 31.50 in1066.7 mb - 0.00 in0.0 mm 0.00 in0.0 mm
05:40 PM 82.3°F27.9°C 75.1°F23.9°C 79% 1.2 mph NNW1.9 kmh NNW 1.2 mph1.9 kmh 31.50 in1066.7 mb - 0.00 in0.0 mm 0.00 in0.0 mm
05:45 PM 82.1°F27.8°C 75.7°F24.3°C 81% 2.3 mph N3.7 kmh N 2.3 mph3.7 kmh 31.50 in1066.7 mb - 0.00 in0.0 mm 0.00 in0.0 mm
05:50 PM 82.0°F27.8°C 75.3°F24.1°C 80% 1.2 mph NW1.9 kmh NW 1.2 mph1.9 kmh 31.50 in1066.7 mb - 0.00 in0.0 mm 0.00 in0.0 mm
05:55 PM 81.9°F27.7°C 75.5°F24.2°C 81% 1.2 mph N1.9 kmh N 1.2 mph1.9 kmh 31.50 in1066.7 mb - 0.00 in0.0 mm 0.00 in0.0 mm
06:00 PM 81.3°F27.4°C 75.3°F24.1°C 82% Calm Calm -- 31.50 in1066.7 mb - 0.00 in0.0 mm 0.00 in0.0 mm
06:10 PM 81.1°F27.3°C 76.2°F24.6°C 85% 2.3 mph S3.7 kmh S 2.3 mph3.7 kmh 31.50 in1066.7 mb - 0.00 in0.0 mm 0.00 in0.0 mm
06:15 PM 81.2°F27.3°C 76.6°F24.8°C 86% 1.2 mph WSW1.9 kmh WSW 2.3 mph3.7 kmh 31.50 in1066.7 mb - 0.00 in0.0 mm 0.00 in0.0 mm
06:20 PM 81.6°F27.6°C 75.6°F24.2°C 82% 2.3 mph S3.7 kmh S 2.3 mph3.7 kmh 31.50 in1066.7 mb - 0.00 in0.0 mm 0.00 in0.0 mm
06:25 PM 82.2°F27.9°C 76.1°F24.5°C 82% 2.3 mph SW3.7 kmh SW 2.3 mph3.7 kmh 31.50 in1066.7 mb - 0.00 in0.0 mm 0.00 in0.0 mm
06:30 PM 82.2°F27.9°C 75.8°F24.3°C 81% 2.3 mph SW3.7 kmh SW 3.5 mph5.6 kmh 31.50 in1066.7 mb - 0.00 in0.0 mm 0.00 in0.0 mm
06:35 PM 81.2°F27.3°C 77.3°F25.2°C 88% 2.3 mph S3.7 kmh S 3.5 mph5.6 kmh 31.50 in1066.7 mb - 0.00 in0.0 mm 0.00 in0.0 mm
06:40 PM 80.8°F27.1°C 77.2°F25.1°C 89% 2.3 mph SW3.7 kmh SW 2.3 mph3.7 kmh 31.80 in1076.9 mb - 0.00 in0.0 mm 0.00 in0.0 mm
06:45 PM 80.4°F26.9°C 76.8°F24.9°C 89% 2.3 mph SW3.7 kmh SW 2.3 mph3.7 kmh 31.84 in1078.2 mb - 0.00 in0.0 mm 0.00 in0.0 mm
06:50 PM 80.3°F26.8°C 77.1°F25.1°C 90% 2.3 mph SSW3.7 kmh SSW 2.3 mph3.7 kmh 31.78 in1076.2 mb - 0.00 in0.0 mm 0.00 in0.0 mm
06:55 PM 80.9°F27.2°C 77.3°F25.2°C 89% 1.2 mph WSW1.9 kmh WSW 2.3 mph3.7 kmh 31.70 in1073.5 mb - 0.00 in0.0 mm 0.00 in0.0 mm
07:00 PM 81.9°F27.7°C 77.3°F25.2°C 86% Calm Calm 1.2 mph1.9 kmh 31.70 in1073.5 mb - 0.00 in0.0 mm 0.00 in0.0 mm
07:10 PM 81.1°F27.3°C 77.2°F25.1°C 88% 1.2 mph SSW1.9 kmh SSW 1.2 mph1.9 kmh 31.58 in1069.4 mb - 0.00 in0.0 mm 0.00 in0.0 mm
07:15 PM 79.4°F26.3°C 76.9°F24.9°C 92% 3.5 mph S5.6 kmh S 3.5 mph5.6 kmh 31.46 in1065.4 mb - 0.00 in0.0 mm 0.00 in0.0 mm
07:20 PM 78.9°F26.1°C 76.7°F24.8°C 93% 1.2 mph S1.9 kmh S 1.2 mph1.9 kmh 31.46 in1065.4 mb - 0.00 in0.0 mm 0.00 in0.0 mm
07:25 PM 79.2°F26.2°C 77.0°F25.0°C 93% Calm Calm -- 31.46 in1065.4 mb - 0.00 in0.0 mm 0.00 in0.0 mm
07:30 PM 79.0°F26.1°C 76.5°F24.7°C 92% Calm Calm -- 31.35 in1061.6 mb - 0.00 in0.0 mm 0.00 in0.0 mm
07:35 PM 78.6°F25.9°C 76.4°F24.7°C 93% Calm Calm 2.3 mph3.7 kmh 31.35 in1061.6 mb - 0.00 in0.0 mm 0.00 in0.0 mm
07:40 PM 77.9°F25.5°C 76.0°F24.4°C 94% 1.2 mph S1.9 kmh S 1.2 mph1.9 kmh 31.26 in1058.6 mb - 0.00 in0.0 mm 0.00 in0.0 mm
07:45 PM 78.2°F25.7°C 76.6°F24.8°C 95% Calm Calm -- 31.26 in1058.6 mb - 0.00 in0.0 mm 0.00 in0.0 mm
07:50 PM 77.6°F25.3°C 76.3°F24.6°C 96% 1.2 mph S1.9 kmh S 1.2 mph1.9 kmh 31.23 in1057.6 mb - 0.00 in0.0 mm 0.00 in0.0 mm
07:55 PM 77.2°F25.1°C 76.6°F24.8°C 98% 1.2 mph S1.9 kmh S 2.3 mph3.7 kmh 31.17 in1055.5 mb - 0.00 in0.0 mm 0.00 in0.0 mm
08:00 PM 77.0°F25.0°C 76.4°F24.7°C 98% 1.2 mph SSW1.9 kmh SSW 2.3 mph3.7 kmh 31.17 in1055.5 mb - 0.00 in0.0 mm 0.00 in0.0 mm
08:10 PM 76.7°F24.8°C 76.4°F24.7°C 99% 2.3 mph S3.7 kmh S 2.3 mph3.7 kmh 31.06 in1051.8 mb - 0.00 in0.0 mm 0.00 in0.0 mm
08:15 PM 76.7°F24.8°C 76.4°F24.7°C 99% 2.3 mph SW3.7 kmh SW 2.3 mph3.7 kmh 30.94 in1047.7 mb - 0.00 in0.0 mm 0.00 in0.0 mm
08:20 PM 76.7°F24.8°C 76.1°F24.5°C 98% Calm Calm -- 30.94 in1047.7 mb - 0.00 in0.0 mm 0.00 in0.0 mm
08:25 PM 76.6°F24.8°C 76.0°F24.4°C 98% Calm Calm 2.3 mph3.7 kmh 30.94 in1047.7 mb - 0.00 in0.0 mm 0.00 in0.0 mm
08:30 PM 76.3°F24.6°C 76.0°F24.4°C 99% Calm Calm -- 30.81 in1043.3 mb - 0.00 in0.0 mm 0.00 in0.0 mm
08:35 PM 76.0°F24.4°C 75.7°F24.3°C 99% 1.2 mph SSE1.9 kmh SSE 2.3 mph3.7 kmh 30.81 in1043.3 mb - 0.00 in0.0 mm 0.00 in0.0 mm
08:40 PM 75.8°F24.3°C 75.5°F24.2°C 99% Calm Calm 2.3 mph3.7 kmh 30.73 in1040.6 mb - 0.00 in0.0 mm 0.00 in0.0 mm
08:45 PM 75.6°F24.2°C 75.3°F24.1°C 99% 1.2 mph SSE1.9 kmh SSE 2.3 mph3.7 kmh 30.73 in1040.6 mb - 0.00 in0.0 mm 0.00 in0.0 mm
08:50 PM 75.6°F24.2°C 75.3°F24.1°C 99% 2.3 mph SSW3.7 kmh SSW 2.3 mph3.7 kmh 30.67 in1038.6 mb - 0.00 in0.0 mm 0.00 in0.0 mm
08:55 PM 75.4°F24.1°C 75.1°F23.9°C 99% 2.3 mph WSW3.7 kmh WSW 2.3 mph3.7 kmh 30.66 in1038.3 mb - 0.00 in0.0 mm 0.00 in0.0 mm
09:00 PM 75.2°F24.0°C 74.9°F23.8°C 99% Calm Calm -- 30.66 in1038.3 mb - 0.00 in0.0 mm 0.00 in0.0 mm
09:10 PM 74.9°F23.8°C 74.6°F23.7°C 99% Calm Calm -- 30.61 in1036.6 mb - 0.00 in0.0 mm 0.00 in0.0 mm
09:15 PM 74.7°F23.7°C 74.4°F23.6°C 99% Calm Calm -- 30.52 in1033.5 mb - 0.00 in0.0 mm 0.00 in0.0 mm
09:20 PM 74.5°F23.6°C 74.2°F23.4°C 99% Calm Calm -- 30.52 in1033.5 mb - 0.00 in0.0 mm 0.00 in0.0 mm
09:25 PM 74.5°F23.6°C 74.2°F23.4°C 99% Calm Calm -- 30.52 in1033.5 mb - 0.00 in0.0 mm 0.00 in0.0 mm
09:30 PM 74.7°F23.7°C 74.4°F23.6°C 99% Calm Calm -- 30.49 in1032.5 mb - 0.00 in0.0 mm 0.00 in0.0 mm
09:35 PM 74.7°F23.7°C 74.4°F23.6°C 99% Calm Calm -- 30.49 in1032.5 mb - 0.00 in0.0 mm 0.00 in0.0 mm
09:40 PM 74.7°F23.7°C 74.4°F23.6°C 99% Calm Calm -- 30.44 in1030.8 mb - 0.00 in0.0 mm 0.00 in0.0 mm
09:45 PM 74.7°F23.7°C 74.4°F23.6°C 99% 1.2 mph SSW1.9 kmh SSW 1.2 mph1.9 kmh 30.44 in1030.8 mb - 0.00 in0.0 mm 0.00 in0.0 mm
09:50 PM 74.9°F23.8°C 74.6°F23.7°C 99% 1.2 mph SSW1.9 kmh SSW 2.3 mph3.7 kmh 30.41 in1029.8 mb - 0.00 in0.0 mm 0.00 in0.0 mm
09:55 PM 75.1°F23.9°C 74.8°F23.8°C 99% Calm Calm 1.2 mph1.9 kmh 30.41 in1029.8 mb - 0.00 in0.0 mm 0.00 in0.0 mm
10:00 PM 75.2°F24.0°C 74.9°F23.8°C 99% Calm Calm 1.2 mph1.9 kmh 30.41 in1029.8 mb - 0.00 in0.0 mm 0.00 in0.0 mm
10:10 PM 75.2°F24.0°C 74.9°F23.8°C 99% Calm Calm -- 30.36 in1028.1 mb - 0.00 in0.0 mm 0.00 in0.0 mm
10:15 PM 75.2°F24.0°C 74.9°F23.8°C 99% Calm Calm -- 30.32 in1026.8 mb - 0.00 in0.0 mm 0.00 in0.0 mm
10:20 PM 75.2°F24.0°C 74.9°F23.8°C 99% Calm Calm -- 30.32 in1026.8 mb - 0.00 in0.0 mm 0.00 in0.0 mm
10:25 PM 75.2°F24.0°C 74.9°F23.8°C 99% Calm Calm -- 30.32 in1026.8 mb - 0.00 in0.0 mm 0.00 in0.0 mm
10:30 PM 75.2°F24.0°C 74.9°F23.8°C 99% Calm Calm -- 30.27 in1025.1 mb - 0.00 in0.0 mm 0.00 in0.0 mm
10:35 PM 75.2°F24.0°C 74.9°F23.8°C 99% Calm Calm -- 30.27 in1025.1 mb - 0.00 in0.0 mm 0.00 in0.0 mm
10:40 PM 75.4°F24.1°C 75.1°F23.9°C 99% Calm Calm -- 30.25 in1024.4 mb - 0.00 in0.0 mm 0.00 in0.0 mm
10:45 PM 75.4°F24.1°C 75.1°F23.9°C 99% Calm Calm -- 30.25 in1024.4 mb - 0.00 in0.0 mm 0.00 in0.0 mm
10:50 PM 75.4°F24.1°C 75.1°F23.9°C 99% Calm Calm -- 30.25 in1024.4 mb - 0.00 in0.0 mm 0.00 in0.0 mm
10:55 PM 75.4°F24.1°C 75.1°F23.9°C 99% Calm Calm -- 30.25 in1024.4 mb - 0.00 in0.0 mm 0.00 in0.0 mm
11:00 PM 75.4°F24.1°C 75.1°F23.9°C 99% Calm Calm -- 30.25 in1024.4 mb - 0.00 in0.0 mm 0.00 in0.0 mm
11:10 PM 75.4°F24.1°C 75.1°F23.9°C 99% Calm Calm -- 30.23 in1023.7 mb - 0.00 in0.0 mm 0.00 in0.0 mm
11:15 PM 75.2°F24.0°C 74.9°F23.8°C 99% Calm Calm -- 30.21 in1023.0 mb - 0.00 in0.0 mm 0.00 in0.0 mm
11:20 PM 75.2°F24.0°C 74.9°F23.8°C 99% Calm Calm -- 30.21 in1023.0 mb - 0.00 in0.0 mm 0.00 in0.0 mm
11:25 PM 75.2°F24.0°C 74.9°F23.8°C 99% Calm Calm 1.2 mph1.9 kmh 30.21 in1023.0 mb - 0.00 in0.0 mm 0.00 in0.0 mm
11:30 PM 75.2°F24.0°C 74.9°F23.8°C 99% Calm Calm -- 30.22 in1023.4 mb - 0.00 in0.0 mm 0.00 in0.0 mm
11:35 PM 75.2°F24.0°C 74.9°F23.8°C 99% Calm Calm -- 30.22 in1023.4 mb - 0.01 in0.3 mm 0.01 in0.3 mm
11:40 PM 75.0°F23.9°C 74.7°F23.7°C 99% Calm Calm -- 30.17 in1021.7 mb - 0.01 in0.3 mm 0.01 in0.3 mm
11:45 PM 75.2°F24.0°C 74.9°F23.8°C 99% Calm Calm -- 30.17 in1021.7 mb - 0.01 in0.3 mm 0.01 in0.3 mm
11:50 PM 75.0°F23.9°C 74.7°F23.7°C 99% 3.5 mph SW5.6 kmh SW 3.5 mph5.6 kmh 30.16 in1021.3 mb - 0.01 in0.3 mm 0.01 in0.3 mm
11:55 PM 75.0°F23.9°C 74.7°F23.7°C 99% 5.8 mph SW9.3 kmh SW 8.1 mph13.0 kmh 30.16 in1021.3 mb - 0.01 in0.3 mm 0.01 in0.3 mm